sensor_id;sensor_type;location;lat;lon;timestamp;P1;durP1;ratioP1;P2;durP2;ratioP2
20711;SDS011;10517;50.742;4.224;2023-05-21T00:00:41;3.75;;;2.50;;
20711;SDS011;10517;50.742;4.224;2023-05-21T00:03:06;3.53;;;2.33;;
20711;SDS011;10517;50.742;4.224;2023-05-21T00:05:37;3.35;;;2.60;;
20711;SDS011;10517;50.742;4.224;2023-05-21T00:08:07;2.70;;;2.38;;
20711;SDS011;10517;50.742;4.224;2023-05-21T00:10:32;3.67;;;2.30;;
20711;SDS011;10517;50.742;4.224;2023-05-21T00:12:58;2.75;;;2.30;;
20711;SDS011;10517;50.742;4.224;2023-05-21T00:15:24;2.72;;;2.38;;
20711;SDS011;10517;50.742;4.224;2023-05-21T00:17:50;3.65;;;2.53;;
20711;SDS011;10517;50.742;4.224;2023-05-21T00:20:16;2.38;;;2.17;;
20711;SDS011;10517;50.742;4.224;2023-05-21T00:22:41;3.05;;;2.40;;
20711;SDS011;10517;50.742;4.224;2023-05-21T00:25:08;2.53;;;2.20;;
20711;SDS011;10517;50.742;4.224;2023-05-21T00:27:35;3.55;;;2.20;;
20711;SDS011;10517;50.742;4.224;2023-05-21T00:30:00;3.63;;;2.75;;
20711;SDS011;10517;50.742;4.224;2023-05-21T00:32:27;3.10;;;2.80;;
20711;SDS011;10517;50.742;4.224;2023-05-21T00:34:53;3.17;;;2.30;;
20711;SDS011;10517;50.742;4.224;2023-05-21T00:37:18;4.45;;;2.75;;
20711;SDS011;10517;50.742;4.224;2023-05-21T00:39:44;5.40;;;2.20;;
20711;SDS011;10517;50.742;4.224;2023-05-21T00:42:10;3.40;;;2.50;;
20711;SDS011;10517;50.742;4.224;2023-05-21T00:44:36;3.65;;;2.53;;
20711;SDS011;10517;50.742;4.224;2023-05-21T00:47:02;3.05;;;2.70;;
20711;SDS011;10517;50.742;4.224;2023-05-21T00:49:30;2.75;;;2.45;;
20711;SDS011;10517;50.742;4.224;2023-05-21T00:51:56;3.50;;;2.45;;
20711;SDS011;10517;50.742;4.224;2023-05-21T00:54:25;3.55;;;2.25;;
20711;SDS011;10517;50.742;4.224;2023-05-21T00:56:51;4.80;;;2.65;;
20711;SDS011;10517;50.742;4.224;2023-05-21T00:59:18;2.88;;;2.33;;
20711;SDS011;10517;50.742;4.224;2023-05-21T01:01:44;2.13;;;1.92;;
20711;SDS011;10517;50.742;4.224;2023-05-21T01:04:10;3.33;;;2.35;;
20711;SDS011;10517;50.742;4.224;2023-05-21T01:06:36;4.75;;;2.10;;
20711;SDS011;10517;50.742;4.224;2023-05-21T01:09:02;3.60;;;2.70;;
20711;SDS011;10517;50.742;4.224;2023-05-21T01:11:48;4.68;;;2.72;;
20711;SDS011;10517;50.742;4.224;2023-05-21T01:14:16;6.38;;;3.10;;
20711;SDS011;10517;50.742;4.224;2023-05-21T01:16:44;3.13;;;2.58;;
20711;SDS011;10517;50.742;4.224;2023-05-21T01:19:14;2.80;;;2.08;;
20711;SDS011;10517;50.742;4.224;2023-05-21T01:21:49;3.05;;;2.47;;
20711;SDS011;10517;50.742;4.224;2023-05-21T01:24:17;2.80;;;2.15;;
20711;SDS011;10517;50.742;4.224;2023-05-21T01:26:43;5.53;;;2.47;;
20711;SDS011;10517;50.742;4.224;2023-05-21T01:29:10;4.00;;;2.40;;
20711;SDS011;10517;50.742;4.224;2023-05-21T01:31:43;3.30;;;2.30;;
20711;SDS011;10517;50.742;4.224;2023-05-21T01:34:10;4.13;;;2.60;;
20711;SDS011;10517;50.742;4.224;2023-05-21T01:36:39;4.45;;;2.53;;
20711;SDS011;10517;50.742;4.224;2023-05-21T01:39:15;4.10;;;2.70;;
20711;SDS011;10517;50.742;4.224;2023-05-21T01:41:47;3.03;;;2.20;;
20711;SDS011;10517;50.742;4.224;2023-05-21T01:44:17;4.97;;;2.28;;
20711;SDS011;10517;50.742;4.224;2023-05-21T01:46:43;3.28;;;2.15;;
20711;SDS011;10517;50.742;4.224;2023-05-21T01:49:09;2.55;;;2.35;;
20711;SDS011;10517;50.742;4.224;2023-05-21T01:51:35;3.45;;;2.05;;
20711;SDS011;10517;50.742;4.224;2023-05-21T01:54:01;2.95;;;1.80;;
20711;SDS011;10517;50.742;4.224;2023-05-21T01:56:27;5.05;;;2.95;;
20711;SDS011;10517;50.742;4.224;2023-05-21T01:58:54;4.05;;;2.60;;
20711;SDS011;10517;50.742;4.224;2023-05-21T02:01:22;3.28;;;2.33;;
20711;SDS011;10517;50.742;4.224;2023-05-21T02:03:47;5.13;;;2.13;;
20711;SDS011;10517;50.742;4.224;2023-05-21T02:06:13;2.80;;;2.17;;
20711;SDS011;10517;50.742;4.224;2023-05-21T02:08:39;4.07;;;2.70;;
20711;SDS011;10517;50.742;4.224;2023-05-21T02:11:04;3.25;;;2.58;;
20711;SDS011;10517;50.742;4.224;2023-05-21T02:13:30;6.40;;;2.40;;
20711;SDS011;10517;50.742;4.224;2023-05-21T02:15:56;6.15;;;2.55;;
20711;SDS011;10517;50.742;4.224;2023-05-21T02:18:22;3.92;;;2.30;;
20711;SDS011;10517;50.742;4.224;2023-05-21T02:20:47;2.88;;;2.60;;
20711;SDS011;10517;50.742;4.224;2023-05-21T02:23:13;2.90;;;2.60;;
20711;SDS011;10517;50.742;4.224;2023-05-21T02:25:39;5.97;;;2.78;;
20711;SDS011;10517;50.742;4.224;2023-05-21T02:28:05;3.75;;;2.55;;
20711;SDS011;10517;50.742;4.224;2023-05-21T02:30:31;2.85;;;2.42;;
20711;SDS011;10517;50.742;4.224;2023-05-21T02:32:57;4.00;;;2.90;;
20711;SDS011;10517;50.742;4.224;2023-05-21T02:35:22;4.10;;;2.83;;
20711;SDS011;10517;50.742;4.224;2023-05-21T02:37:48;3.83;;;2.60;;
20711;SDS011;10517;50.742;4.224;2023-05-21T02:40:14;6.10;;;3.08;;
20711;SDS011;10517;50.742;4.224;2023-05-21T02:42:40;5.88;;;2.47;;
20711;SDS011;10517;50.742;4.224;2023-05-21T02:45:06;3.80;;;2.45;;
20711;SDS011;10517;50.742;4.224;2023-05-21T02:47:36;2.90;;;2.58;;
20711;SDS011;10517;50.742;4.224;2023-05-21T02:50:05;6.45;;;3.00;;
20711;SDS011;10517;50.742;4.224;2023-05-21T02:52:32;4.18;;;2.38;;
20711;SDS011;10517;50.742;4.224;2023-05-21T02:54:57;4.45;;;2.90;;
20711;SDS011;10517;50.742;4.224;2023-05-21T02:57:23;2.85;;;2.58;;
20711;SDS011;10517;50.742;4.224;2023-05-21T02:59:48;4.72;;;3.00;;
20711;SDS011;10517;50.742;4.224;2023-05-21T03:02:14;4.43;;;3.00;;
20711;SDS011;10517;50.742;4.224;2023-05-21T03:04:40;3.08;;;2.70;;
20711;SDS011;10517;50.742;4.224;2023-05-21T03:07:10;4.43;;;3.08;;
20711;SDS011;10517;50.742;4.224;2023-05-21T03:09:41;5.63;;;2.92;;
20711;SDS011;10517;50.742;4.224;2023-05-21T03:12:07;3.72;;;2.70;;
20711;SDS011;10517;50.742;4.224;2023-05-21T03:14:33;3.22;;;2.72;;
20711;SDS011;10517;50.742;4.224;2023-05-21T03:16:59;3.33;;;2.72;;
20711;SDS011;10517;50.742;4.224;2023-05-21T03:19:27;3.25;;;2.78;;
20711;SDS011;10517;50.742;4.224;2023-05-21T03:21:54;3.03;;;2.72;;
20711;SDS011;10517;50.742;4.224;2023-05-21T03:24:20;4.85;;;2.83;;
20711;SDS011;10517;50.742;4.224;2023-05-21T03:26:46;6.78;;;3.33;;
20711;SDS011;10517;50.742;4.224;2023-05-21T03:29:13;3.95;;;2.63;;
20711;SDS011;10517;50.742;4.224;2023-05-21T03:31:38;5.50;;;3.17;;
20711;SDS011;10517;50.742;4.224;2023-05-21T03:34:04;4.63;;;3.38;;
20711;SDS011;10517;50.742;4.224;2023-05-21T03:36:29;4.10;;;3.13;;
20711;SDS011;10517;50.742;4.224;2023-05-21T03:38:55;5.55;;;3.08;;
20711;SDS011;10517;50.742;4.224;2023-05-21T03:41:21;6.07;;;3.33;;
20711;SDS011;10517;50.742;4.224;2023-05-21T03:43:47;3.53;;;2.70;;
20711;SDS011;10517;50.742;4.224;2023-05-21T03:46:12;5.32;;;3.20;;
20711;SDS011;10517;50.742;4.224;2023-05-21T03:48:38;3.45;;;2.88;;
20711;SDS011;10517;50.742;4.224;2023-05-21T03:51:03;3.45;;;2.65;;
20711;SDS011;10517;50.742;4.224;2023-05-21T03:53:29;4.35;;;3.17;;
20711;SDS011;10517;50.742;4.224;2023-05-21T03:55:54;6.70;;;3.15;;
20711;SDS011;10517;50.742;4.224;2023-05-21T03:58:23;5.18;;;2.97;;
20711;SDS011;10517;50.742;4.224;2023-05-21T04:00:49;4.68;;;3.20;;
20711;SDS011;10517;50.742;4.224;2023-05-21T04:03:15;4.43;;;2.78;;
20711;SDS011;10517;50.742;4.224;2023-05-21T04:05:41;3.22;;;2.92;;
20711;SDS011;10517;50.742;4.224;2023-05-21T04:08:07;3.70;;;2.78;;
20711;SDS011;10517;50.742;4.224;2023-05-21T04:10:33;8.43;;;3.35;;
20711;SDS011;10517;50.742;4.224;2023-05-21T04:12:59;5.75;;;3.25;;
20711;SDS011;10517;50.742;4.224;2023-05-21T04:15:25;4.10;;;3.13;;
20711;SDS011;10517;50.742;4.224;2023-05-21T04:17:51;5.82;;;3.40;;
20711;SDS011;10517;50.742;4.224;2023-05-21T04:20:18;4.82;;;3.55;;
20711;SDS011;10517;50.742;4.224;2023-05-21T04:22:44;6.57;;;3.55;;
20711;SDS011;10517;50.742;4.224;2023-05-21T04:25:10;3.83;;;2.90;;
20711;SDS011;10517;50.742;4.224;2023-05-21T04:27:36;3.30;;;2.97;;
20711;SDS011;10517;50.742;4.224;2023-05-21T04:30:02;4.50;;;3.50;;
20711;SDS011;10517;50.742;4.224;2023-05-21T04:32:29;4.30;;;3.10;;
20711;SDS011;10517;50.742;4.224;2023-05-21T04:34:55;4.35;;;3.42;;
20711;SDS011;10517;50.742;4.224;2023-05-21T04:37:21;6.43;;;2.97;;
20711;SDS011;10517;50.742;4.224;2023-05-21T04:39:50;2.78;;;2.58;;
20711;SDS011;10517;50.742;4.224;2023-05-21T04:42:15;9.23;;;3.30;;
20711;SDS011;10517;50.742;4.224;2023-05-21T04:44:43;5.82;;;3.55;;
20711;SDS011;10517;50.742;4.224;2023-05-21T04:47:09;4.95;;;3.33;;
20711;SDS011;10517;50.742;4.224;2023-05-21T04:49:36;4.22;;;3.17;;
20711;SDS011;10517;50.742;4.224;2023-05-21T04:52:01;3.72;;;3.03;;
20711;SDS011;10517;50.742;4.224;2023-05-21T04:54:27;7.10;;;3.53;;
20711;SDS011;10517;50.742;4.224;2023-05-21T04:56:53;9.73;;;4.32;;
20711;SDS011;10517;50.742;4.224;2023-05-21T04:59:19;4.38;;;3.30;;
20711;SDS011;10517;50.742;4.224;2023-05-21T05:01:45;5.75;;;3.58;;
20711;SDS011;10517;50.742;4.224;2023-05-21T05:04:11;5.68;;;3.67;;
20711;SDS011;10517;50.742;4.224;2023-05-21T05:06:36;4.75;;;3.30;;
20711;SDS011;10517;50.742;4.224;2023-05-21T05:09:02;8.82;;;2.95;;
20711;SDS011;10517;50.742;4.224;2023-05-21T05:11:28;4.00;;;3.28;;
20711;SDS011;10517;50.742;4.224;2023-05-21T05:13:54;4.47;;;3.70;;
20711;SDS011;10517;50.742;4.224;2023-05-21T05:16:20;3.92;;;3.30;;
20711;SDS011;10517;50.742;4.224;2023-05-21T05:18:52;6.30;;;3.40;;
20711;SDS011;10517;50.742;4.224;2023-05-21T05:21:18;7.22;;;3.25;;
20711;SDS011;10517;50.742;4.224;2023-05-21T05:23:44;7.80;;;4.35;;
20711;SDS011;10517;50.742;4.224;2023-05-21T05:26:10;5.07;;;3.60;;
20711;SDS011;10517;50.742;4.224;2023-05-21T05:28:35;4.95;;;3.65;;
20711;SDS011;10517;50.742;4.224;2023-05-21T05:31:01;5.32;;;3.67;;
20711;SDS011;10517;50.742;4.224;2023-05-21T05:33:26;7.38;;;2.97;;
20711;SDS011;10517;50.742;4.224;2023-05-21T05:35:52;5.95;;;3.13;;
20711;SDS011;10517;50.742;4.224;2023-05-21T05:38:18;7.85;;;3.47;;
20711;SDS011;10517;50.742;4.224;2023-05-21T05:40:43;4.75;;;3.47;;
20711;SDS011;10517;50.742;4.224;2023-05-21T05:43:09;4.75;;;3.42;;
20711;SDS011;10517;50.742;4.224;2023-05-21T05:45:35;6.13;;;3.80;;
20711;SDS011;10517;50.742;4.224;2023-05-21T05:48:00;5.32;;;3.75;;
20711;SDS011;10517;50.742;4.224;2023-05-21T05:50:26;4.25;;;3.50;;
20711;SDS011;10517;50.742;4.224;2023-05-21T05:52:52;4.78;;;3.45;;
20711;SDS011;10517;50.742;4.224;2023-05-21T05:55:17;6.15;;;3.78;;
20711;SDS011;10517;50.742;4.224;2023-05-21T05:57:43;3.75;;;3.20;;
20711;SDS011;10517;50.742;4.224;2023-05-21T06:00:09;5.25;;;3.58;;
20711;SDS011;10517;50.742;4.224;2023-05-21T06:02:35;7.78;;;3.42;;
20711;SDS011;10517;50.742;4.224;2023-05-21T06:05:01;5.78;;;3.72;;
20711;SDS011;10517;50.742;4.224;2023-05-21T06:07:27;4.90;;;3.53;;
20711;SDS011;10517;50.742;4.224;2023-05-21T06:09:53;4.97;;;3.80;;
20711;SDS011;10517;50.742;4.224;2023-05-21T06:12:19;6.47;;;4.70;;
20711;SDS011;10517;50.742;4.224;2023-05-21T06:14:45;6.13;;;3.92;;
20711;SDS011;10517;50.742;4.224;2023-05-21T06:17:12;5.55;;;3.65;;
20711;SDS011;10517;50.742;4.224;2023-05-21T06:19:38;5.22;;;3.40;;
20711;SDS011;10517;50.742;4.224;2023-05-21T06:22:04;5.13;;;3.90;;
20711;SDS011;10517;50.742;4.224;2023-05-21T06:24:30;6.30;;;4.20;;
20711;SDS011;10517;50.742;4.224;2023-05-21T06:26:55;5.45;;;3.78;;
20711;SDS011;10517;50.742;4.224;2023-05-21T06:29:21;6.68;;;4.22;;
20711;SDS011;10517;50.742;4.224;2023-05-21T06:31:47;6.65;;;3.42;;
20711;SDS011;10517;50.742;4.224;2023-05-21T06:34:13;5.80;;;4.32;;
20711;SDS011;10517;50.742;4.224;2023-05-21T06:36:38;5.10;;;3.90;;
20711;SDS011;10517;50.742;4.224;2023-05-21T06:39:05;4.50;;;3.35;;
20711;SDS011;10517;50.742;4.224;2023-05-21T06:41:31;4.75;;;3.67;;
20711;SDS011;10517;50.742;4.224;2023-05-21T06:43:56;5.68;;;4.63;;
20711;SDS011;10517;50.742;4.224;2023-05-21T06:46:22;5.70;;;3.97;;
20711;SDS011;10517;50.742;4.224;2023-05-21T06:48:48;9.48;;;3.90;;
20711;SDS011;10517;50.742;4.224;2023-05-21T06:51:13;6.38;;;4.32;;
20711;SDS011;10517;50.742;4.224;2023-05-21T06:53:39;5.85;;;4.13;;
20711;SDS011;10517;50.742;4.224;2023-05-21T06:56:05;4.40;;;3.65;;
20711;SDS011;10517;50.742;4.224;2023-05-21T06:58:30;7.10;;;4.05;;
20711;SDS011;10517;50.742;4.224;2023-05-21T07:00:56;5.40;;;3.95;;
20711;SDS011;10517;50.742;4.224;2023-05-21T07:03:22;4.78;;;3.80;;
20711;SDS011;10517;50.742;4.224;2023-05-21T07:05:48;5.05;;;3.97;;
20711;SDS011;10517;50.742;4.224;2023-05-21T07:08:14;8.48;;;4.00;;
20711;SDS011;10517;50.742;4.224;2023-05-21T07:10:39;9.32;;;4.15;;
20711;SDS011;10517;50.742;4.224;2023-05-21T07:13:06;10.10;;;3.95;;
20711;SDS011;10517;50.742;4.224;2023-05-21T07:15:32;4.32;;;3.88;;
20711;SDS011;10517;50.742;4.224;2023-05-21T07:17:57;8.75;;;4.47;;
20711;SDS011;10517;50.742;4.224;2023-05-21T07:20:23;7.00;;;4.22;;
20711;SDS011;10517;50.742;4.224;2023-05-21T07:22:48;7.25;;;3.83;;
20711;SDS011;10517;50.742;4.224;2023-05-21T07:25:14;4.63;;;3.63;;
20711;SDS011;10517;50.742;4.224;2023-05-21T07:27:40;5.63;;;4.13;;
20711;SDS011;10517;50.742;4.224;2023-05-21T07:30:06;6.60;;;4.50;;
20711;SDS011;10517;50.742;4.224;2023-05-21T07:32:33;6.32;;;4.22;;
20711;SDS011;10517;50.742;4.224;2023-05-21T07:34:59;6.50;;;4.50;;
20711;SDS011;10517;50.742;4.224;2023-05-21T07:37:27;7.80;;;4.50;;
20711;SDS011;10517;50.742;4.224;2023-05-21T07:39:53;6.90;;;4.07;;
20711;SDS011;10517;50.742;4.224;2023-05-21T07:42:21;7.10;;;4.45;;
20711;SDS011;10517;50.742;4.224;2023-05-21T07:44:46;3.88;;;3.47;;
20711;SDS011;10517;50.742;4.224;2023-05-21T07:47:12;6.63;;;4.43;;
20711;SDS011;10517;50.742;4.224;2023-05-21T07:49:37;5.80;;;4.43;;
20711;SDS011;10517;50.742;4.224;2023-05-21T07:52:03;5.22;;;3.95;;
20711;SDS011;10517;50.742;4.224;2023-05-21T07:54:29;5.22;;;4.13;;
20711;SDS011;10517;50.742;4.224;2023-05-21T07:56:55;8.82;;;4.50;;
20711;SDS011;10517;50.742;4.224;2023-05-21T07:59:20;6.00;;;4.50;;
20711;SDS011;10517;50.742;4.224;2023-05-21T08:01:46;6.25;;;4.25;;
20711;SDS011;10517;50.742;4.224;2023-05-21T08:04:12;7.57;;;4.95;;
20711;SDS011;10517;50.742;4.224;2023-05-21T08:06:37;6.25;;;3.92;;
20711;SDS011;10517;50.742;4.224;2023-05-21T08:09:03;5.50;;;4.43;;
20711;SDS011;10517;50.742;4.224;2023-05-21T08:11:30;4.70;;;4.03;;
20711;SDS011;10517;50.742;4.224;2023-05-21T08:13:56;5.78;;;4.45;;
20711;SDS011;10517;50.742;4.224;2023-05-21T08:16:22;6.22;;;4.00;;
20711;SDS011;10517;50.742;4.224;2023-05-21T08:18:48;9.13;;;4.32;;
20711;SDS011;10517;50.742;4.224;2023-05-21T08:21:14;6.45;;;4.57;;
20711;SDS011;10517;50.742;4.224;2023-05-21T08:23:41;8.02;;;5.07;;
20711;SDS011;10517;50.742;4.224;2023-05-21T08:26:07;7.25;;;4.47;;
20711;SDS011;10517;50.742;4.224;2023-05-21T08:28:33;5.50;;;4.13;;
20711;SDS011;10517;50.742;4.224;2023-05-21T08:31:00;6.75;;;4.45;;
20711;SDS011;10517;50.742;4.224;2023-05-21T08:33:26;5.28;;;4.03;;
20711;SDS011;10517;50.742;4.224;2023-05-21T08:35:52;7.35;;;4.68;;
20711;SDS011;10517;50.742;4.224;2023-05-21T08:38:18;8.32;;;4.00;;
20711;SDS011;10517;50.742;4.224;2023-05-21T08:40:47;6.72;;;3.90;;
20711;SDS011;10517;50.742;4.224;2023-05-21T08:43:15;6.00;;;4.55;;
20711;SDS011;10517;50.742;4.224;2023-05-21T08:45:44;6.00;;;4.57;;
20711;SDS011;10517;50.742;4.224;2023-05-21T08:48:16;5.40;;;4.13;;
20711;SDS011;10517;50.742;4.224;2023-05-21T08:50:43;5.70;;;4.38;;
20711;SDS011;10517;50.742;4.224;2023-05-21T08:53:10;8.57;;;5.30;;
20711;SDS011;10517;50.742;4.224;2023-05-21T08:55:35;6.55;;;4.78;;
20711;SDS011;10517;50.742;4.224;2023-05-21T08:58:03;6.72;;;4.53;;
20711;SDS011;10517;50.742;4.224;2023-05-21T09:00:29;10.30;;;4.13;;
20711;SDS011;10517;50.742;4.224;2023-05-21T09:02:57;7.78;;;4.82;;
20711;SDS011;10517;50.742;4.224;2023-05-21T09:05:25;7.35;;;4.72;;
20711;SDS011;10517;50.742;4.224;2023-05-21T09:07:58;6.57;;;5.15;;
20711;SDS011;10517;50.742;4.224;2023-05-21T09:10:35;7.38;;;5.43;;
20711;SDS011;10517;50.742;4.224;2023-05-21T09:13:03;6.10;;;4.22;;
20711;SDS011;10517;50.742;4.224;2023-05-21T09:15:29;7.75;;;4.47;;
20711;SDS011;10517;50.742;4.224;2023-05-21T09:17:55;8.00;;;4.32;;
20711;SDS011;10517;50.742;4.224;2023-05-21T09:20:25;8.95;;;5.63;;
20711;SDS011;10517;50.742;4.224;2023-05-21T09:22:53;6.32;;;5.05;;
20711;SDS011;10517;50.742;4.224;2023-05-21T09:25:20;9.43;;;5.65;;
20711;SDS011;10517;50.742;4.224;2023-05-21T09:27:52;8.18;;;5.20;;
20711;SDS011;10517;50.742;4.224;2023-05-21T09:30:19;5.75;;;4.70;;
20711;SDS011;10517;50.742;4.224;2023-05-21T09:32:47;7.47;;;5.53;;
20711;SDS011;10517;50.742;4.224;2023-05-21T09:35:18;6.70;;;5.00;;
20711;SDS011;10517;50.742;4.224;2023-05-21T09:37:44;8.10;;;5.20;;
20711;SDS011;10517;50.742;4.224;2023-05-21T09:40:12;10.82;;;6.43;;
20711;SDS011;10517;50.742;4.224;2023-05-21T09:42:49;9.52;;;5.55;;
20711;SDS011;10517;50.742;4.224;2023-05-21T09:45:23;7.20;;;5.50;;
20711;SDS011;10517;50.742;4.224;2023-05-21T09:47:50;8.27;;;5.63;;
20711;SDS011;10517;50.742;4.224;2023-05-21T09:50:24;8.00;;;5.75;;
20711;SDS011;10517;50.742;4.224;2023-05-21T09:52:51;10.82;;;5.82;;
20711;SDS011;10517;50.742;4.224;2023-05-21T09:55:22;9.00;;;6.07;;
20711;SDS011;10517;50.742;4.224;2023-05-21T09:57:49;7.75;;;5.82;;
20711;SDS011;10517;50.742;4.224;2023-05-21T10:00:16;9.63;;;6.13;;
20711;SDS011;10517;50.742;4.224;2023-05-21T10:02:43;8.27;;;5.88;;
20711;SDS011;10517;50.742;4.224;2023-05-21T10:05:11;8.75;;;5.93;;
20711;SDS011;10517;50.742;4.224;2023-05-21T10:07:39;8.32;;;6.00;;
20711;SDS011;10517;50.742;4.224;2023-05-21T10:10:08;9.55;;;6.00;;
20711;SDS011;10517;50.742;4.224;2023-05-21T10:12:37;11.52;;;6.13;;
20711;SDS011;10517;50.742;4.224;2023-05-21T10:15:12;6.80;;;5.57;;
20711;SDS011;10517;50.742;4.224;2023-05-21T10:17:39;8.93;;;5.90;;
20711;SDS011;10517;50.742;4.224;2023-05-21T10:20:06;10.30;;;6.25;;
20711;SDS011;10517;50.742;4.224;2023-05-21T10:22:34;11.23;;;5.82;;
20711;SDS011;10517;50.742;4.224;2023-05-21T10:25:01;10.20;;;6.38;;
20711;SDS011;10517;50.742;4.224;2023-05-21T10:27:27;10.05;;;6.32;;
20711;SDS011;10517;50.742;4.224;2023-05-21T10:29:55;9.85;;;6.82;;
20711;SDS011;10517;50.742;4.224;2023-05-21T10:32:23;9.63;;;7.07;;
20711;SDS011;10517;50.742;4.224;2023-05-21T10:34:54;8.93;;;6.13;;
20711;SDS011;10517;50.742;4.224;2023-05-21T10:37:22;8.02;;;6.60;;
20711;SDS011;10517;50.742;4.224;2023-05-21T10:39:50;7.38;;;5.70;;
20711;SDS011;10517;50.742;4.224;2023-05-21T10:44:58;8.95;;;7.10;;
20711;SDS011;10517;50.742;4.224;2023-05-21T10:47:46;11.57;;;7.45;;
20711;SDS011;10517;50.742;4.224;2023-05-21T10:55:49;16.55;;;6.07;;
20711;SDS011;10517;50.742;4.224;2023-05-21T11:01:04;10.80;;;6.60;;
20711;SDS011;10517;50.742;4.224;2023-05-21T11:03:30;9.40;;;6.63;;
20711;SDS011;10517;50.742;4.224;2023-05-21T11:05:57;9.95;;;6.93;;
20711;SDS011;10517;50.742;4.224;2023-05-21T11:10:53;9.48;;;6.82;;
20711;SDS011;10517;50.742;4.224;2023-05-21T11:13:21;9.40;;;7.25;;
20711;SDS011;10517;50.742;4.224;2023-05-21T11:18:23;11.80;;;7.47;;
20711;SDS011;10517;50.742;4.224;2023-05-21T11:21:09;9.23;;;7.35;;
20711;SDS011;10517;50.742;4.224;2023-05-21T11:23:55;10.35;;;7.22;;
20711;SDS011;10517;50.742;4.224;2023-05-21T11:26:25;10.15;;;6.95;;
20711;SDS011;10517;50.742;4.224;2023-05-21T11:31:27;9.43;;;6.85;;
20711;SDS011;10517;50.742;4.224;2023-05-21T11:34:07;10.55;;;7.10;;
20711;SDS011;10517;50.742;4.224;2023-05-21T11:36:52;13.25;;;7.50;;
20711;SDS011;10517;50.742;4.224;2023-05-21T11:39:40;10.57;;;7.07;;
20711;SDS011;10517;50.742;4.224;2023-05-21T11:42:06;8.20;;;7.18;;
20711;SDS011;10517;50.742;4.224;2023-05-21T11:47:13;11.20;;;7.70;;
20711;SDS011;10517;50.742;4.224;2023-05-21T11:49:42;10.55;;;6.70;;
20711;SDS011;10517;50.742;4.224;2023-05-21T11:52:08;10.80;;;6.82;;
20711;SDS011;10517;50.742;4.224;2023-05-21T11:54:42;14.68;;;7.72;;
20711;SDS011;10517;50.742;4.224;2023-05-21T11:57:17;10.85;;;7.20;;
20711;SDS011;10517;50.742;4.224;2023-05-21T11:59:43;10.07;;;7.40;;
20711;SDS011;10517;50.742;4.224;2023-05-21T12:02:13;8.38;;;6.82;;
20711;SDS011;10517;50.742;4.224;2023-05-21T12:04:43;11.70;;;7.30;;
20711;SDS011;10517;50.742;4.224;2023-05-21T12:07:10;11.88;;;7.30;;
20711;SDS011;10517;50.742;4.224;2023-05-21T12:09:45;16.45;;;7.28;;
20711;SDS011;10517;50.742;4.224;2023-05-21T12:12:16;11.10;;;6.95;;
20711;SDS011;10517;50.742;4.224;2023-05-21T12:14:47;10.27;;;7.13;;
20711;SDS011;10517;50.742;4.224;2023-05-21T12:17:15;11.52;;;7.85;;
20711;SDS011;10517;50.742;4.224;2023-05-21T12:19:42;12.15;;;7.85;;
20711;SDS011;10517;50.742;4.224;2023-05-21T12:22:08;10.23;;;7.43;;
20711;SDS011;10517;50.742;4.224;2023-05-21T12:24:35;15.82;;;7.93;;
20711;SDS011;10517;50.742;4.224;2023-05-21T12:27:02;10.73;;;8.18;;
20711;SDS011;10517;50.742;4.224;2023-05-21T12:29:33;14.48;;;8.27;;
20711;SDS011;10517;50.742;4.224;2023-05-21T12:32:07;8.95;;;6.68;;
20711;SDS011;10517;50.742;4.224;2023-05-21T12:34:41;12.00;;;7.93;;
20711;SDS011;10517;50.742;4.224;2023-05-21T12:39:48;11.73;;;8.25;;
20711;SDS011;10517;50.742;4.224;2023-05-21T12:42:16;14.70;;;8.40;;
20711;SDS011;10517;50.742;4.224;2023-05-21T12:44:54;9.18;;;7.05;;
20711;SDS011;10517;50.742;4.224;2023-05-21T12:47:23;10.32;;;7.80;;
20711;SDS011;10517;50.742;4.224;2023-05-21T12:49:52;9.27;;;7.72;;
20711;SDS011;10517;50.742;4.224;2023-05-21T12:52:19;9.70;;;7.95;;
20711;SDS011;10517;50.742;4.224;2023-05-21T12:54:48;11.70;;;8.30;;
20711;SDS011;10517;50.742;4.224;2023-05-21T12:57:17;10.90;;;8.25;;
20711;SDS011;10517;50.742;4.224;2023-05-21T13:02:30;11.80;;;8.45;;
20711;SDS011;10517;50.742;4.224;2023-05-21T13:05:09;9.30;;;7.68;;
20711;SDS011;10517;50.742;4.224;2023-05-21T13:07:39;12.02;;;7.93;;
20711;SDS011;10517;50.742;4.224;2023-05-21T13:10:05;10.10;;;7.72;;
20711;SDS011;10517;50.742;4.224;2023-05-21T13:12:32;11.13;;;8.68;;
20711;SDS011;10517;50.742;4.224;2023-05-21T13:14:59;9.02;;;8.15;;
20711;SDS011;10517;50.742;4.224;2023-05-21T13:17:26;10.73;;;8.20;;
20711;SDS011;10517;50.742;4.224;2023-05-21T13:20:11;8.85;;;7.32;;
20711;SDS011;10517;50.742;4.224;2023-05-21T13:25:12;12.57;;;8.45;;
20711;SDS011;10517;50.742;4.224;2023-05-21T13:27:44;10.77;;;8.73;;
20711;SDS011;10517;50.742;4.224;2023-05-21T13:30:10;10.00;;;8.20;;
20711;SDS011;10517;50.742;4.224;2023-05-21T13:32:37;8.65;;;7.75;;
20711;SDS011;10517;50.742;4.224;2023-05-21T13:35:03;8.88;;;7.90;;
20711;SDS011;10517;50.742;4.224;2023-05-21T13:37:29;13.40;;;8.90;;
20711;SDS011;10517;50.742;4.224;2023-05-21T13:39:55;9.48;;;8.48;;
20711;SDS011;10517;50.742;4.224;2023-05-21T13:42:21;13.07;;;8.55;;
20711;SDS011;10517;50.742;4.224;2023-05-21T13:44:47;14.48;;;9.10;;
20711;SDS011;10517;50.742;4.224;2023-05-21T13:47:13;10.27;;;7.55;;
20711;SDS011;10517;50.742;4.224;2023-05-21T13:49:39;9.68;;;8.23;;
20711;SDS011;10517;50.742;4.224;2023-05-21T13:52:05;9.73;;;8.68;;
20711;SDS011;10517;50.742;4.224;2023-05-21T13:54:32;11.27;;;8.68;;
20711;SDS011;10517;50.742;4.224;2023-05-21T13:56:57;14.80;;;8.38;;
20711;SDS011;10517;50.742;4.224;2023-05-21T13:59:23;10.23;;;7.90;;
20711;SDS011;10517;50.742;4.224;2023-05-21T14:01:49;15.23;;;9.30;;
20711;SDS011;10517;50.742;4.224;2023-05-21T14:04:16;9.18;;;7.85;;
20711;SDS011;10517;50.742;4.224;2023-05-21T14:06:42;10.10;;;7.90;;
20711;SDS011;10517;50.742;4.224;2023-05-21T14:09:08;11.13;;;7.78;;
20711;SDS011;10517;50.742;4.224;2023-05-21T14:11:34;11.05;;;8.25;;
20711;SDS011;10517;50.742;4.224;2023-05-21T14:14:00;12.35;;;8.48;;
20711;SDS011;10517;50.742;4.224;2023-05-21T14:16:27;8.90;;;7.82;;
20711;SDS011;10517;50.742;4.224;2023-05-21T14:18:53;9.40;;;8.02;;
20711;SDS011;10517;50.742;4.224;2023-05-21T14:21:19;10.48;;;7.65;;
20711;SDS011;10517;50.742;4.224;2023-05-21T14:23:46;8.70;;;7.88;;
20711;SDS011;10517;50.742;4.224;2023-05-21T14:26:12;9.90;;;8.68;;
20711;SDS011;10517;50.742;4.224;2023-05-21T14:28:39;9.70;;;8.70;;
20711;SDS011;10517;50.742;4.224;2023-05-21T14:31:05;10.43;;;8.10;;
20711;SDS011;10517;50.742;4.224;2023-05-21T14:33:31;11.63;;;8.65;;
20711;SDS011;10517;50.742;4.224;2023-05-21T14:35:57;10.15;;;8.23;;
20711;SDS011;10517;50.742;4.224;2023-05-21T14:38:23;9.68;;;7.60;;
20711;SDS011;10517;50.742;4.224;2023-05-21T14:40:49;10.57;;;8.38;;
20711;SDS011;10517;50.742;4.224;2023-05-21T14:43:15;10.15;;;8.95;;
20711;SDS011;10517;50.742;4.224;2023-05-21T14:45:41;10.13;;;7.68;;
20711;SDS011;10517;50.742;4.224;2023-05-21T14:48:06;12.27;;;7.93;;
20711;SDS011;10517;50.742;4.224;2023-05-21T14:50:39;10.43;;;8.30;;
20711;SDS011;10517;50.742;4.224;2023-05-21T14:55:31;17.23;;;8.02;;
20711;SDS011;10517;50.742;4.224;2023-05-21T14:57:58;8.70;;;7.75;;
20711;SDS011;10517;50.742;4.224;2023-05-21T15:00:28;11.73;;;7.68;;
20711;SDS011;10517;50.742;4.224;2023-05-21T15:02:57;10.20;;;8.18;;
20711;SDS011;10517;50.742;4.224;2023-05-21T15:05:26;9.95;;;8.18;;
20711;SDS011;10517;50.742;4.224;2023-05-21T15:07:53;9.85;;;8.27;;
20711;SDS011;10517;50.742;4.224;2023-05-21T15:10:22;11.00;;;7.90;;
20711;SDS011;10517;50.742;4.224;2023-05-21T15:12:52;9.23;;;8.20;;
20711;SDS011;10517;50.742;4.224;2023-05-21T15:15:18;11.07;;;8.43;;
20711;SDS011;10517;50.742;4.224;2023-05-21T15:17:47;8.50;;;7.55;;